This is the latest recevied weather packets stored in our database for station/object KQ4HEI. If no packets are shown the sender has not sent any weather packets the latest 10 day(s).
| Time | Temp. | Humidity | Pressure | Rain* | Wind** | Luminosity | Snow |
|---|---|---|---|---|---|---|---|
| 1787876492 | 24.44° C | 99% | 1012.6 hPa | 0 mm | - | - | - |
| 1787875293 | 25° C | 99% | 1012.9 hPa | 0 mm | - | - | - |
| 1787872892 | 25° C | 99% | 1012.9 hPa | 0 mm | - | - | - |
| 1787872293 | 25° C | 99% | 1013 hPa | 0 mm | - | - | - |
| 1787871092 | 24.44° C | 99% | 1013.1 hPa | 0 mm | - | - | - |
| 1787869892 | 24.44° C | 99% | 1012.9 hPa | 0 mm | - | - | - |
| 1787869292 | 24.44° C | 99% | 1012.7 hPa | 0 mm | - | - | - |
| 1787866292 | 24.44° C | 99% | 1012.6 hPa | 0.51 mm | - | - | - |
| 1787865692 | 24.44° C | 99% | 1012.9 hPa | 1.02 mm | - | - | - |
| 1787865092 | 24.44° C | 99% | 1013 hPa | 0 mm | - | - | - |
| 1787864492 | 23.89° C | 99% | 1013.2 hPa | 0 mm | - | - | - |
| 1787863292 | 23.89° C | 99% | 1013.5 hPa | 2.03 mm | - | - | - |
| 1787862692 | 23.89° C | 99% | 1013.7 hPa | 2.03 mm | - | - | - |
| 1787862092 | 24.44° C | 99% | 1014.1 hPa | 2.03 mm | - | - | - |
| 1787861492 | 24.44° C | 99% | 1013.9 hPa | 4.32 mm | - | - | - |
| 1787860893 | 24.44° C | 99% | 1014.1 hPa | 5.33 mm | - | - | - |
| 1787859092 | 25.56° C | 92% | 1014.3 hPa | 0.25 mm | - | - | - |
| 1787858492 | 26.67° C | 85% | 1014.1 hPa | 0 mm | - | - | - |
| 1787857893 | 27.22° C | 82% | 1013.9 hPa | 0 mm | - | - | - |
| 1787856692 | 29.44° C | 79% | 1013.6 hPa | 0 mm | - | - | - |
| 1787855492 | 31.11° C | 75% | 1013.9 hPa | 0 mm | - | - | - |
| 1787854892 | 31.67° C | 74% | 1013.7 hPa | 0 mm | - | - | - |
| 1787854292 | 32.22° C | 69% | 1013.7 hPa | 0 mm | - | - | - |
| 1787853692 | 32.22° C | 72% | 1013.8 hPa | 0 mm | - | - | - |
| 1787851892 | 32.78° C | 71% | 1014.2 hPa | 0 mm | - | - | - |
* Rain latest hour (hover to see other rain measurements)
** Current wind speed in m/s (hover to see current wind gust speed)